Terminal Aerodrome Forecast
Issued by NWS Cleveland, OH

Home | Current Version | Previous Version | Text Only | Print | Product List | Glossary Off
Versions: 1 2 3 4 5 6 7 8 9 10 11 12 13 14

000
FTUS41 KCLE 302333
TAFYNG
TAF
KYNG 302333Z 0100/0124 22010KT P6SM -SHRA BKN020 BKN035 OVC080
     FM010500 22006KT P6SM VCSH SCT100 BKN250
     FM010900 22006KT 4SM BR VCSH OVC007
     FM011500 25009KT 6SM BR OVC015
     FM011800 26007KT P6SM BKN035=

USA.gov is the U.S. government's official web portal to all federal, state and local government web resources and services.